createdAt,value
2019-05-29T00:00:25.691Z,0.00
2019-05-29T00:01:25.655Z,0.00
2019-05-29T00:02:25.668Z,0.00
2019-05-29T00:03:25.668Z,0.00
2019-05-29T00:04:25.627Z,0.00
2019-05-29T00:05:25.658Z,0.00
2019-05-29T00:06:25.642Z,0.00
2019-05-29T00:07:25.631Z,0.00
2019-05-29T00:08:25.601Z,0.00
2019-05-29T00:09:25.671Z,0.00
2019-05-29T00:10:25.557Z,0.00
2019-05-29T00:11:25.547Z,0.00
2019-05-29T00:12:25.529Z,0.00
2019-05-29T00:13:25.568Z,0.00
2019-05-29T00:14:27.598Z,0.00
2019-05-29T00:15:25.497Z,0.00
2019-05-29T00:16:25.498Z,0.00
2019-05-29T00:17:25.477Z,0.00
2019-05-29T00:18:25.488Z,0.00
2019-05-29T00:19:25.598Z,0.00
2019-05-29T00:20:25.460Z,0.00
2019-05-29T00:21:25.428Z,0.00
2019-05-29T00:22:25.418Z,0.00
2019-05-29T00:23:25.460Z,0.00
2019-05-29T00:24:25.488Z,0.00
2019-05-29T00:25:25.388Z,0.00
2019-05-29T00:26:25.377Z,0.00
2019-05-29T00:27:25.449Z,0.00
2019-05-29T00:28:25.360Z,0.00
2019-05-29T00:29:25.359Z,0.00
2019-05-29T00:30:25.367Z,0.00
2019-05-29T00:31:25.327Z,0.00
2019-05-29T00:32:25.317Z,0.00
2019-05-29T00:33:25.298Z,0.00
2019-05-29T00:34:25.441Z,0.00
2019-05-29T00:35:25.287Z,0.00
2019-05-29T00:36:25.277Z,0.00
2019-05-29T00:37:25.298Z,0.00
2019-05-29T00:38:25.309Z,0.00
2019-05-29T00:39:25.246Z,0.00
2019-05-29T00:40:25.308Z,0.00
2019-05-29T00:41:25.221Z,0.00
2019-05-29T00:42:25.268Z,0.00
2019-05-29T00:43:25.309Z,0.00
2019-05-29T00:44:33.914Z,0.00
2019-05-29T00:45:26.208Z,0.00
2019-05-29T00:46:25.179Z,0.00
2019-05-29T00:47:25.154Z,0.00
2019-05-29T00:48:25.148Z,0.00
2019-05-29T00:49:25.180Z,0.00
2019-05-29T00:50:39.668Z,0.00
2019-05-29T00:51:25.239Z,0.00
2019-05-29T00:52:25.128Z,0.00
2019-05-29T00:53:25.125Z,0.00
2019-05-29T00:54:25.120Z,0.00
2019-05-29T00:55:25.058Z,0.00
2019-05-29T00:56:25.071Z,0.00
2019-05-29T00:57:25.048Z,0.00
2019-05-29T00:58:25.037Z,0.00
2019-05-29T00:59:25.027Z,0.00
2019-05-29T01:00:25.059Z,0.00
2019-05-29T01:01:24.999Z,0.00
2019-05-29T01:02:25.029Z,0.00
2019-05-29T01:03:25.127Z,0.00
2019-05-29T01:04:24.989Z,0.00
2019-05-29T01:05:24.969Z,0.00
2019-05-29T01:06:24.947Z,0.00
2019-05-29T01:07:24.929Z,0.00
2019-05-29T01:08:24.999Z,0.00
2019-05-29T01:09:24.931Z,0.00
2019-05-29T01:10:24.938Z,0.00
2019-05-29T01:11:24.888Z,0.00
2019-05-29T01:12:24.958Z,0.00
2019-05-29T01:13:24.907Z,0.00
2019-05-29T01:14:24.969Z,0.00
2019-05-29T01:15:24.878Z,0.00
2019-05-29T01:16:24.873Z,0.00
2019-05-29T01:17:24.819Z,0.00
2019-05-29T01:18:24.876Z,0.00
2019-05-29T01:19:24.797Z,0.00
2019-05-29T01:20:24.872Z,0.00
2019-05-29T01:21:25.348Z,0.00
2019-05-29T01:22:24.769Z,0.00
2019-05-29T01:23:24.758Z,0.00
2019-05-29T01:24:24.910Z,0.00
2019-05-29T01:25:24.768Z,0.00
2019-05-29T01:26:24.772Z,0.00
2019-05-29T01:27:24.718Z,0.00
2019-05-29T01:28:24.778Z,0.00
2019-05-29T01:29:24.689Z,0.00
2019-05-29T01:30:24.677Z,0.00
2019-05-29T01:31:24.678Z,0.00
2019-05-29T01:32:24.697Z,0.00
2019-05-29T01:33:25.067Z,0.00
2019-05-29T01:34:24.647Z,0.00
2019-05-29T01:35:24.643Z,0.00
2019-05-29T01:36:24.618Z,0.00
2019-05-29T01:37:24.612Z,0.00
2019-05-29T01:38:24.614Z,0.00
2019-05-29T01:39:24.598Z,0.00
2019-05-29T01:40:27.876Z,0.00
2019-05-29T01:41:24.569Z,0.00
2019-05-29T01:42:24.558Z,0.00
2019-05-29T01:43:24.537Z,0.00
2019-05-29T01:44:24.546Z,0.00
2019-05-29T01:45:24.527Z,0.00
2019-05-29T01:46:24.556Z,0.00
2019-05-29T01:47:24.538Z,0.00
2019-05-29T01:48:24.491Z,0.00
2019-05-29T01:49:24.491Z,0.00
2019-05-29T01:50:24.548Z,0.00
2019-05-29T01:51:24.463Z,0.00
2019-05-29T01:52:24.521Z,0.00
2019-05-29T01:53:24.468Z,0.00
2019-05-29T01:54:24.457Z,0.00
2019-05-29T01:55:24.546Z,0.00
2019-05-29T01:56:24.458Z,0.00
2019-05-29T01:57:24.388Z,0.00
2019-05-29T01:58:24.392Z,0.00
2019-05-29T01:59:24.384Z,0.00
2019-05-29T02:00:24.513Z,0.00
2019-05-29T02:01:24.356Z,0.00
2019-05-29T02:02:24.367Z,0.00
2019-05-29T02:03:24.364Z,0.00
2019-05-29T02:04:24.363Z,0.00
2019-05-29T02:05:24.311Z,0.00
2019-05-29T02:06:24.369Z,0.00
2019-05-29T02:07:24.292Z,0.00
2019-05-29T02:08:24.357Z,0.00
2019-05-29T02:09:24.368Z,0.00
2019-05-29T02:10:24.418Z,0.00
2019-05-29T02:11:24.238Z,0.00
2019-05-29T02:12:24.510Z,0.00
2019-05-29T02:13:24.220Z,0.00
2019-05-29T02:14:24.876Z,0.00
2019-05-29T02:15:32.091Z,0.00
2019-05-29T02:16:25.187Z,0.00
2019-05-29T02:17:24.232Z,0.00
2019-05-29T02:18:25.124Z,0.00
2019-05-29T02:19:24.158Z,0.00
2019-05-29T02:20:25.200Z,0.00
2019-05-29T02:21:24.279Z,0.00
2019-05-29T02:22:25.061Z,0.00
2019-05-29T02:23:24.262Z,0.00
2019-05-29T02:24:25.343Z,0.00
2019-05-29T02:25:24.341Z,0.00
2019-05-29T02:26:24.441Z,0.00
2019-05-29T02:27:24.077Z,0.00
2019-05-29T02:28:24.605Z,0.00
2019-05-29T02:29:24.879Z,0.00
2019-05-29T02:30:27.501Z,0.00
2019-05-29T02:31:27.077Z,0.00
2019-05-29T02:32:25.499Z,0.00
2019-05-29T02:33:24.641Z,0.00
2019-05-29T02:34:25.547Z,0.00
2019-05-29T02:35:24.777Z,0.00
2019-05-29T02:36:24.639Z,0.00
2019-05-29T02:37:24.409Z,0.00
2019-05-29T02:38:24.986Z,0.00
2019-05-29T02:39:25.626Z,0.00
2019-05-29T02:40:25.912Z,0.00
2019-05-29T02:41:25.706Z,0.00
2019-05-29T02:42:25.130Z,0.00
2019-05-29T02:43:25.431Z,0.00
2019-05-29T02:44:25.286Z,0.00
2019-05-29T02:45:31.612Z,0.00
2019-05-29T02:46:26.461Z,0.00
2019-05-29T02:47:25.785Z,0.00
2019-05-29T02:48:25.064Z,0.00
2019-05-29T02:49:23.967Z,0.00
2019-05-29T02:50:24.029Z,0.00
2019-05-29T02:51:24.192Z,0.00
2019-05-29T02:52:24.327Z,0.00
2019-05-29T02:53:24.497Z,0.00
2019-05-29T02:54:24.849Z,0.00
2019-05-29T02:55:24.513Z,0.00
2019-05-29T02:56:24.902Z,0.00
2019-05-29T02:57:24.640Z,0.00
2019-05-29T02:58:25.367Z,0.00
2019-05-29T02:59:25.491Z,0.00
2019-05-29T03:00:25.568Z,0.00
2019-05-29T03:01:25.164Z,0.00
2019-05-29T03:02:25.366Z,0.00
2019-05-29T03:03:24.409Z,0.00
2019-05-29T03:04:24.120Z,5.62
2019-05-29T03:05:23.906Z,5.62
2019-05-29T03:06:24.059Z,5.62
2019-05-29T03:07:24.333Z,5.62
2019-05-29T03:08:24.723Z,5.62
2019-05-29T03:09:24.716Z,5.62
2019-05-29T03:10:24.744Z,5.62
2019-05-29T03:11:25.032Z,5.62
2019-05-29T03:12:24.939Z,11.25
2019-05-29T03:13:25.251Z,11.25
2019-05-29T03:14:25.102Z,11.25
2019-05-29T03:15:24.076Z,11.25
2019-05-29T03:16:24.394Z,11.25
2019-05-29T03:17:23.742Z,16.88
2019-05-29T03:18:23.953Z,16.88
2019-05-29T03:19:23.931Z,16.88
2019-05-29T03:20:23.925Z,16.88
2019-05-29T03:21:24.058Z,22.50
2019-05-29T03:22:24.112Z,22.50
2019-05-29T03:23:24.217Z,22.50
2019-05-29T03:24:24.518Z,22.50
2019-05-29T03:25:24.314Z,28.12
2019-05-29T03:26:25.243Z,28.12
2019-05-29T03:27:23.438Z,28.12
2019-05-29T03:28:23.397Z,28.12
2019-05-29T03:29:23.396Z,33.75
2019-05-29T03:30:23.409Z,33.75
2019-05-29T03:31:23.397Z,33.75
2019-05-29T03:32:23.420Z,39.38
2019-05-29T03:33:23.385Z,39.38
2019-05-29T03:34:23.337Z,39.38
2019-05-29T03:35:23.448Z,45.00
2019-05-29T03:36:23.318Z,45.00
2019-05-29T03:37:23.326Z,45.00
2019-05-29T03:38:23.328Z,45.00
2019-05-29T03:39:23.315Z,50.62
2019-05-29T03:40:23.428Z,50.62
2019-05-29T03:41:23.248Z,50.62
2019-05-29T03:42:23.243Z,56.25
2019-05-29T03:43:23.238Z,56.25
2019-05-29T03:44:23.261Z,56.25
2019-05-29T03:45:23.397Z,61.88
2019-05-29T03:46:31.638Z,61.88
2019-05-29T03:47:24.234Z,67.50
2019-05-29T03:48:23.216Z,67.50
2019-05-29T03:49:23.199Z,67.50
2019-05-29T03:50:23.155Z,73.12
2019-05-29T03:51:23.229Z,73.12
2019-05-29T03:52:23.176Z,73.12
2019-05-29T03:53:23.146Z,78.75
2019-05-29T03:54:23.146Z,78.75
2019-05-29T03:55:23.216Z,78.75
2019-05-29T03:56:23.235Z,84.38
2019-05-29T03:57:23.115Z,84.38
2019-05-29T03:58:23.117Z,84.38
2019-05-29T03:59:23.087Z,90.00
2019-05-29T04:00:23.090Z,90.00
2019-05-29T04:01:23.065Z,90.00
2019-05-29T04:02:23.185Z,95.62
2019-05-29T04:03:23.046Z,95.62
2019-05-29T04:04:23.045Z,95.62
2019-05-29T04:05:22.987Z,101.25
2019-05-29T04:06:23.016Z,101.25
2019-05-29T04:07:23.086Z,101.25
2019-05-29T04:08:23.019Z,106.88
2019-05-29T04:09:22.990Z,106.88
2019-05-29T04:10:22.941Z,106.88
2019-05-29T04:11:22.926Z,112.50
2019-05-29T04:12:22.926Z,112.50
2019-05-29T04:13:22.920Z,112.50
2019-05-29T04:14:22.895Z,118.12
2019-05-29T04:15:22.899Z,118.12
2019-05-29T04:16:22.875Z,118.12
2019-05-29T04:17:22.869Z,118.12
2019-05-29T04:18:22.867Z,123.75
2019-05-29T04:19:22.863Z,123.75
2019-05-29T04:20:22.825Z,123.75
2019-05-29T04:21:22.815Z,129.38
2019-05-29T04:22:22.810Z,129.38
2019-05-29T04:23:22.804Z,129.38
2019-05-29T04:24:22.776Z,129.38
2019-05-29T04:25:22.775Z,135.00
2019-05-29T04:26:22.764Z,135.00
2019-05-29T04:27:22.744Z,135.00
2019-05-29T04:28:22.758Z,140.62
2019-05-29T04:29:22.767Z,140.62
2019-05-29T04:30:22.727Z,140.62
2019-05-29T04:31:22.705Z,140.62
2019-05-29T04:32:22.716Z,146.25
2019-05-29T04:33:22.704Z,146.25
2019-05-29T04:34:22.675Z,146.25
2019-05-29T04:35:22.675Z,146.25
2019-05-29T04:36:22.646Z,151.88
2019-05-29T04:37:22.669Z,151.88
2019-05-29T04:38:22.660Z,151.88
2019-05-29T04:39:22.629Z,151.88
2019-05-29T04:40:22.608Z,151.88
2019-05-29T04:41:22.609Z,157.50
2019-05-29T04:42:22.601Z,157.50
2019-05-29T04:43:22.575Z,157.50
2019-05-29T04:44:22.584Z,157.50
2019-05-29T04:45:22.566Z,163.12
2019-05-29T04:46:22.545Z,163.12
2019-05-29T04:47:22.532Z,163.12
2019-05-29T04:48:22.530Z,163.12
2019-05-29T04:49:22.524Z,168.75
2019-05-29T04:50:22.503Z,168.75
2019-05-29T04:51:22.495Z,168.75
2019-05-29T04:52:22.485Z,168.75
2019-05-29T04:53:22.473Z,168.75
2019-05-29T04:54:22.474Z,174.38
2019-05-29T04:55:22.456Z,174.38
2019-05-29T04:56:22.433Z,174.38
2019-05-29T04:57:22.426Z,174.38
2019-05-29T04:58:22.404Z,180.00
2019-05-29T04:59:22.404Z,180.00
2019-05-29T05:00:22.397Z,180.00
2019-05-29T05:01:22.374Z,180.00
2019-05-29T05:02:22.364Z,180.00
2019-05-29T05:03:22.353Z,185.62
2019-05-29T05:04:22.365Z,185.62
2019-05-29T05:05:22.354Z,185.62
2019-05-29T05:06:22.334Z,185.62
2019-05-29T05:07:22.313Z,185.62
2019-05-29T05:08:22.303Z,191.25
2019-05-29T05:09:22.294Z,191.25
2019-05-29T05:10:22.294Z,191.25
2019-05-29T05:11:22.314Z,191.25
2019-05-29T05:12:22.277Z,191.25
2019-05-29T05:13:22.254Z,196.88
2019-05-29T05:14:22.254Z,196.88
2019-05-29T05:15:22.246Z,196.88
2019-05-29T05:16:22.213Z,196.88
2019-05-29T05:17:26.110Z,196.88
2019-05-29T05:18:22.206Z,202.50
2019-05-29T05:19:22.197Z,202.50
2019-05-29T05:20:22.183Z,202.50
2019-05-29T05:21:22.187Z,202.50
2019-05-29T05:22:22.154Z,202.50
2019-05-29T05:23:22.145Z,202.50
2019-05-29T05:24:22.137Z,208.12
2019-05-29T05:25:22.123Z,208.12
2019-05-29T05:26:22.123Z,208.12
2019-05-29T05:27:22.096Z,208.12
2019-05-29T05:28:22.105Z,213.75
2019-05-29T05:29:22.114Z,213.75
2019-05-29T05:30:22.098Z,213.75
2019-05-29T05:31:22.053Z,213.75
2019-05-29T05:32:24.088Z,219.38
2019-05-29T05:33:22.074Z,219.38
2019-05-29T05:34:22.035Z,219.38
2019-05-29T05:35:22.017Z,225.00
2019-05-29T05:36:21.994Z,225.00
2019-05-29T05:37:21.999Z,230.62
2019-05-29T05:38:22.117Z,225.00
2019-05-29T05:39:22.274Z,225.00
2019-05-29T05:40:21.999Z,230.62
2019-05-29T05:41:21.954Z,230.62
2019-05-29T05:42:21.937Z,230.62
2019-05-29T05:43:24.352Z,230.62
2019-05-29T05:44:21.945Z,230.62
2019-05-29T05:45:21.904Z,230.62
2019-05-29T05:46:24.710Z,230.62
2019-05-29T05:47:21.994Z,230.62
2019-05-29T05:48:21.864Z,230.62
2019-05-29T05:49:21.854Z,236.25
2019-05-29T05:50:21.844Z,236.25
2019-05-29T05:51:21.944Z,236.25
2019-05-29T05:52:21.855Z,241.88
2019-05-29T05:53:21.843Z,241.88
2019-05-29T05:54:21.794Z,241.88
2019-05-29T05:55:21.798Z,241.88
2019-05-29T05:56:21.814Z,241.88
2019-05-29T05:57:21.795Z,241.88
2019-05-29T05:58:21.767Z,247.50
2019-05-29T05:59:21.790Z,247.50
2019-05-29T06:00:21.765Z,253.12
2019-05-29T06:01:21.754Z,253.12
2019-05-29T06:02:21.834Z,258.75
2019-05-29T06:03:21.734Z,264.38
2019-05-29T06:04:21.694Z,275.62
2019-05-29T06:05:21.716Z,292.50
2019-05-29T06:06:21.673Z,540.00
2019-05-29T06:07:21.709Z,990.00
2019-05-29T06:08:21.764Z,1119.38
2019-05-29T06:09:21.715Z,1119.38
2019-05-29T06:10:21.664Z,1096.88
2019-05-29T06:11:21.605Z,1108.12
2019-05-29T06:12:21.645Z,1136.25
2019-05-29T06:13:21.637Z,1141.88
2019-05-29T06:14:21.725Z,1147.50
2019-05-29T06:15:21.613Z,1175.62
2019-05-29T06:16:21.596Z,1215.00
2019-05-29T06:17:22.066Z,1192.50
2019-05-29T06:18:22.087Z,1192.50
2019-05-29T06:19:21.534Z,1209.38
2019-05-29T06:20:21.683Z,1209.38
2019-05-29T06:21:21.565Z,1220.62
2019-05-29T06:22:21.536Z,1231.88
2019-05-29T06:23:21.499Z,1243.12
2019-05-29T06:24:21.606Z,1265.62
2019-05-29T06:25:21.501Z,1276.88
2019-05-29T06:26:21.500Z,1271.25
2019-05-29T06:27:21.497Z,1299.38
2019-05-29T06:28:21.437Z,1299.38
2019-05-29T06:29:21.535Z,1316.25
2019-05-29T06:30:21.447Z,1344.38
2019-05-29T06:31:21.430Z,1327.50
2019-05-29T06:32:21.417Z,1344.38
2019-05-29T06:33:21.377Z,1366.88
2019-05-29T06:34:21.526Z,1395.00
2019-05-29T06:35:21.401Z,1395.00
2019-05-29T06:36:21.378Z,1400.62
2019-05-29T06:37:21.367Z,1417.50
2019-05-29T06:38:21.331Z,1451.25
2019-05-29T06:39:21.347Z,1507.50
2019-05-29T06:40:21.417Z,1530.00
2019-05-29T06:41:21.278Z,1541.25
2019-05-29T06:42:21.308Z,1518.75
2019-05-29T06:43:21.307Z,1518.75
2019-05-29T06:44:21.248Z,1530.00
2019-05-29T06:45:21.409Z,1563.75
2019-05-29T06:46:21.268Z,1603.12
2019-05-29T06:47:21.251Z,1625.62
2019-05-29T06:48:40.689Z,1614.38
2019-05-29T06:49:22.230Z,1597.50
2019-05-29T06:50:21.190Z,1586.25
2019-05-29T06:51:21.209Z,1614.38
2019-05-29T06:52:21.200Z,1614.38
2019-05-29T06:53:21.163Z,1603.12
2019-05-29T06:54:21.280Z,1586.25
2019-05-29T06:55:21.253Z,1586.25
2019-05-29T06:56:21.151Z,1603.12
2019-05-29T06:57:25.621Z,1614.38
2019-05-29T06:58:21.104Z,1591.88
2019-05-29T06:59:21.134Z,1580.62
2019-05-29T07:00:34.802Z,1558.12
2019-05-29T07:01:22.235Z,1563.75
2019-05-29T07:02:21.052Z,1569.38
2019-05-29T07:03:21.085Z,1614.38
2019-05-29T07:04:21.031Z,1614.38
2019-05-29T07:05:21.065Z,1546.88
2019-05-29T07:06:21.172Z,1558.12
2019-05-29T07:07:21.025Z,1580.62
2019-05-29T07:08:37.643Z,1580.62
2019-05-29T07:09:22.013Z,1501.88
2019-05-29T07:10:21.023Z,1462.50
2019-05-29T07:11:20.962Z,1580.62
2019-05-29T07:12:20.983Z,1687.50
2019-05-29T07:13:20.984Z,1659.38
2019-05-29T07:14:20.922Z,1726.88
2019-05-29T07:15:20.934Z,1766.25
2019-05-29T07:16:21.014Z,1749.38
2019-05-29T07:17:21.004Z,1800.00
2019-05-29T07:18:20.875Z,1884.38
2019-05-29T07:19:32.747Z,1951.88
2019-05-29T07:20:21.894Z,1957.50
2019-05-29T07:21:20.868Z,1951.88
2019-05-29T07:22:20.865Z,2008.12
2019-05-29T07:23:20.836Z,2008.12
2019-05-29T07:24:20.855Z,1968.75
2019-05-29T07:25:20.836Z,2041.88
2019-05-29T07:26:20.826Z,2165.62
2019-05-29T07:27:20.874Z,2143.12
2019-05-29T07:28:20.808Z,2070.00
2019-05-29T07:29:20.796Z,2115.00
2019-05-29T07:30:20.760Z,2103.75
2019-05-29T07:31:20.776Z,2092.50
2019-05-29T07:32:20.727Z,2193.75
2019-05-29T07:33:20.868Z,2283.75
2019-05-29T07:34:20.698Z,2266.88
2019-05-29T07:35:20.697Z,2221.88
2019-05-29T07:36:20.679Z,1991.25
2019-05-29T07:37:20.842Z,1968.75
2019-05-29T07:38:20.668Z,2176.88
2019-05-29T07:39:20.690Z,2311.88
2019-05-29T07:40:20.679Z,2323.12
2019-05-29T07:41:20.627Z,2396.25
2019-05-29T07:42:20.652Z,2452.50
2019-05-29T07:43:20.616Z,2424.38
2019-05-29T07:44:20.644Z,2413.12
2019-05-29T07:45:20.630Z,2401.88
2019-05-29T07:46:20.654Z,2323.12
2019-05-29T07:47:20.717Z,2295.00
2019-05-29T07:48:20.571Z,2407.50
2019-05-29T07:49:35.916Z,2424.38
2019-05-29T07:50:21.571Z,2368.12
2019-05-29T07:51:20.562Z,2396.25
2019-05-29T07:53:29.445Z,2424.38
2019-05-29T07:54:29.430Z,2401.88
2019-05-29T07:55:29.406Z,2390.62
2019-05-29T07:56:29.440Z,2508.75
2019-05-29T07:57:29.427Z,2458.12
2019-05-29T07:58:29.531Z,2418.75
2019-05-29T07:59:29.466Z,2508.75
2019-05-29T08:00:35.465Z,2536.88
2019-05-29T08:01:30.613Z,2508.75
2019-05-29T08:02:29.369Z,2593.12
2019-05-29T08:03:29.329Z,2638.12
2019-05-29T08:04:29.451Z,2576.25
2019-05-29T08:05:29.316Z,2581.88
2019-05-29T08:06:29.326Z,2649.38
2019-05-29T08:07:29.320Z,2660.62
2019-05-29T08:08:29.312Z,2671.88
2019-05-29T08:09:29.285Z,2598.75
2019-05-29T08:10:29.412Z,2677.50
2019-05-29T08:11:29.253Z,2683.12
2019-05-29T08:12:29.275Z,2750.62
2019-05-29T08:13:29.394Z,2818.12
2019-05-29T08:14:29.244Z,2778.75
2019-05-29T08:15:29.240Z,2812.50
2019-05-29T08:16:29.222Z,2790.00
2019-05-29T08:17:29.225Z,2874.38
2019-05-29T08:18:29.172Z,2891.25
2019-05-29T08:19:29.163Z,3009.38
2019-05-29T08:20:29.182Z,3048.75
2019-05-29T08:21:29.181Z,2919.38
2019-05-29T08:22:34.146Z,3082.50
2019-05-29T08:23:30.236Z,2840.62
2019-05-29T08:24:29.266Z,2992.50
2019-05-29T08:25:29.138Z,2992.50
2019-05-29T08:26:29.115Z,2773.12
2019-05-29T08:27:29.085Z,2930.62
2019-05-29T08:28:29.097Z,2863.12
2019-05-29T08:29:29.085Z,2930.62
2019-05-29T08:30:29.075Z,3110.62
2019-05-29T08:31:29.065Z,3037.50
2019-05-29T08:32:29.186Z,3301.88
2019-05-29T08:33:29.026Z,3318.75
2019-05-29T08:34:29.041Z,2986.88
2019-05-29T08:35:29.091Z,3240.00
2019-05-29T08:36:29.018Z,3448.12
2019-05-29T08:37:28.968Z,3324.38
2019-05-29T08:38:28.998Z,3358.12
2019-05-29T08:39:36.010Z,3616.88
2019-05-29T08:40:30.098Z,3616.88
2019-05-29T08:41:28.920Z,3583.12
2019-05-29T08:42:28.915Z,3493.12
2019-05-29T08:43:28.988Z,3330.00
2019-05-29T08:44:28.930Z,3060.00
2019-05-29T08:45:28.930Z,2986.88
2019-05-29T08:46:28.909Z,3127.50
2019-05-29T08:47:29.119Z,3172.50
2019-05-29T08:48:28.894Z,3301.88
2019-05-29T08:49:28.992Z,3414.38
2019-05-29T08:50:28.872Z,3577.50
2019-05-29T08:51:28.863Z,3841.88
2019-05-29T08:52:28.855Z,3751.88
2019-05-29T08:53:28.849Z,3442.50
2019-05-29T08:54:28.823Z,3678.75
2019-05-29T08:55:28.906Z,3673.12
2019-05-29T08:56:28.858Z,3684.38
2019-05-29T08:57:28.794Z,3763.12
2019-05-29T08:58:28.784Z,3690.00
2019-05-29T08:59:28.735Z,3881.25
2019-05-29T09:00:28.735Z,3819.38
2019-05-29T09:01:28.726Z,3976.88
2019-05-29T09:02:28.786Z,3982.50
2019-05-29T09:03:28.727Z,3999.38
2019-05-29T09:04:28.696Z,4117.50
2019-05-29T09:05:28.787Z,3735.00
2019-05-29T09:06:28.698Z,3521.25
2019-05-29T09:07:28.823Z,3903.75
2019-05-29T09:08:28.708Z,3830.62
2019-05-29T09:09:28.684Z,3847.50
2019-05-29T09:10:28.760Z,3701.25
2019-05-29T09:11:28.633Z,3628.12
2019-05-29T09:12:29.956Z,3526.88
2019-05-29T09:13:28.628Z,3228.75
2019-05-29T09:14:28.620Z,2986.88
2019-05-29T09:15:28.674Z,2930.62
2019-05-29T09:16:28.561Z,3048.75
2019-05-29T09:17:28.594Z,3228.75
2019-05-29T09:18:28.712Z,3256.88
2019-05-29T09:19:28.545Z,3369.38
2019-05-29T09:20:50.163Z,3757.50
2019-05-29T09:21:29.503Z,3870.00
2019-05-29T09:22:28.514Z,3836.25
2019-05-29T09:23:28.483Z,4038.75
2019-05-29T09:24:28.494Z,3954.38
2019-05-29T09:25:28.503Z,3858.75
2019-05-29T09:26:28.575Z,3931.88
2019-05-29T09:27:28.445Z,3948.75
2019-05-29T09:28:28.476Z,3780.00
2019-05-29T09:29:28.486Z,3791.25
2019-05-29T09:30:28.470Z,3965.62
2019-05-29T09:31:28.444Z,3768.75
2019-05-29T09:32:48.371Z,3796.88
2019-05-29T09:33:29.387Z,3931.88
2019-05-29T09:34:28.428Z,3870.00
2019-05-29T09:35:28.388Z,3802.50
2019-05-29T09:36:28.358Z,3898.12
2019-05-29T09:37:28.509Z,3881.25
2019-05-29T09:38:28.340Z,3875.62
2019-05-29T09:39:28.371Z,3993.75
2019-05-29T09:40:28.339Z,3954.38
2019-05-29T09:41:28.309Z,3909.38
2019-05-29T09:42:28.413Z,4044.38
2019-05-29T09:43:30.648Z,4050.00
2019-05-29T09:44:38.401Z,4095.00
2019-05-29T09:45:29.811Z,4117.50
2019-05-29T09:46:28.291Z,3976.88
2019-05-29T09:47:28.290Z,3993.75
2019-05-29T09:48:28.895Z,3999.38
2019-05-29T09:49:28.224Z,3909.38
2019-05-29T09:50:46.471Z,3965.62
2019-05-29T09:51:29.246Z,4089.38
2019-05-29T09:52:30.644Z,4151.25
2019-05-29T09:53:28.184Z,4106.25
2019-05-29T09:54:28.377Z,4055.62
2019-05-29T09:55:28.156Z,4128.75
2019-05-29T09:56:28.195Z,4083.75
2019-05-29T09:57:28.186Z,4044.38
2019-05-29T09:58:28.302Z,4016.25
2019-05-29T09:59:28.125Z,3960.00
2019-05-29T10:00:28.157Z,3988.12
2019-05-29T10:01:28.292Z,4168.12
2019-05-29T10:02:28.128Z,4213.12
2019-05-29T10:03:28.176Z,4471.88
2019-05-29T10:04:28.081Z,4061.25
2019-05-29T10:05:28.058Z,2126.25
2019-05-29T10:06:28.091Z,4213.12
2019-05-29T10:07:28.080Z,3335.62
2019-05-29T10:08:28.188Z,4252.50
2019-05-29T10:09:28.031Z,3498.75
2019-05-29T10:10:28.049Z,1417.50
2019-05-29T10:11:28.001Z,1597.50
2019-05-29T10:12:28.031Z,3791.25
2019-05-29T10:13:28.024Z,4629.38
2019-05-29T10:14:28.021Z,4505.62
2019-05-29T10:15:27.962Z,4387.50
2019-05-29T10:16:28.009Z,4488.75
2019-05-29T10:17:27.985Z,4100.62
2019-05-29T10:18:32.489Z,1715.62
2019-05-29T10:19:28.994Z,1271.25
2019-05-29T10:20:27.955Z,1074.38
2019-05-29T10:21:39.128Z,1074.38
2019-05-29T10:22:28.884Z,1766.25
2019-05-29T10:23:27.894Z,4533.75
2019-05-29T10:24:27.910Z,4460.62
2019-05-29T10:25:27.857Z,4516.88
2019-05-29T10:26:27.846Z,4651.88
2019-05-29T10:27:27.838Z,4556.25
2019-05-29T10:28:27.857Z,4449.38
2019-05-29T10:29:27.846Z,4578.75
2019-05-29T10:30:27.847Z,4646.25
2019-05-29T10:31:27.796Z,4578.75
2019-05-29T10:32:27.818Z,4573.12
2019-05-29T10:33:27.778Z,4651.88
2019-05-29T10:34:27.789Z,4674.38
2019-05-29T10:35:27.899Z,4601.25
2019-05-29T10:36:27.815Z,4595.62
2019-05-29T10:37:27.730Z,4668.75
2019-05-29T10:38:27.770Z,4663.12
2019-05-29T10:39:27.728Z,4635.00
2019-05-29T10:40:27.841Z,4685.62
2019-05-29T10:41:27.764Z,4713.75
2019-05-29T10:42:27.721Z,4775.62
2019-05-29T10:43:34.083Z,4770.00
2019-05-29T10:44:28.834Z,4483.12
2019-05-29T10:45:27.656Z,4370.62
2019-05-29T10:46:27.764Z,4466.25
2019-05-29T10:47:27.672Z,4556.25
2019-05-29T10:48:27.663Z,4505.62
2019-05-29T10:49:27.809Z,4415.62
2019-05-29T10:50:27.651Z,4432.50
2019-05-29T10:51:27.596Z,4612.50
2019-05-29T10:52:27.606Z,4663.12
2019-05-29T10:53:27.593Z,4556.25
2019-05-29T10:54:27.619Z,4578.75
2019-05-29T10:55:27.706Z,4702.50
2019-05-29T10:56:27.723Z,4556.25
2019-05-29T10:57:27.577Z,4533.75
2019-05-29T10:58:27.581Z,4758.75
2019-05-29T10:59:27.529Z,4702.50
2019-05-29T11:00:27.582Z,4460.62
2019-05-29T11:01:27.642Z,4556.25
2019-05-29T11:02:27.520Z,4882.50
2019-05-29T11:03:27.481Z,2154.38
2019-05-29T11:04:27.480Z,1732.50
2019-05-29T11:05:27.480Z,2047.50
2019-05-29T11:06:27.492Z,1192.50
2019-05-29T11:07:27.558Z,1215.00
2019-05-29T11:08:27.470Z,1490.62
2019-05-29T11:09:41.004Z,4533.75
2019-05-29T11:10:28.531Z,4376.25
2019-05-29T11:11:27.455Z,1209.38
2019-05-29T11:12:27.448Z,1755.00
2019-05-29T11:13:27.381Z,4393.12
2019-05-29T11:14:27.422Z,4055.62
2019-05-29T11:15:27.445Z,956.25
2019-05-29T11:16:27.439Z,916.88
2019-05-29T11:17:27.356Z,950.62
2019-05-29T11:18:27.334Z,1141.88
2019-05-29T11:19:27.331Z,4421.25
2019-05-29T11:20:27.303Z,4668.75
2019-05-29T11:21:27.338Z,4404.38
2019-05-29T11:22:27.337Z,1372.50
2019-05-29T11:23:27.432Z,4601.25
2019-05-29T11:24:27.306Z,4663.12
2019-05-29T11:25:27.891Z,4629.38
2019-05-29T11:26:27.295Z,4736.25
2019-05-29T11:27:27.304Z,4528.12
2019-05-29T11:28:27.386Z,4860.00
2019-05-29T11:29:27.228Z,3538.12
2019-05-29T11:30:27.252Z,5113.12
2019-05-29T11:31:27.239Z,4781.25
2019-05-29T11:32:27.184Z,4629.38
2019-05-29T11:33:27.180Z,4775.62
2019-05-29T11:34:27.180Z,1411.88
2019-05-29T11:35:27.150Z,1355.62
2019-05-29T11:36:27.202Z,1305.00
2019-05-29T11:37:27.130Z,1535.62
2019-05-29T11:38:27.265Z,1648.12
2019-05-29T11:39:27.165Z,4668.75
2019-05-29T11:40:27.116Z,4781.25
2019-05-29T11:41:27.102Z,4775.62
2019-05-29T11:42:28.177Z,4725.00
2019-05-29T11:43:27.092Z,4657.50
2019-05-29T11:44:27.116Z,4747.50
2019-05-29T11:45:27.053Z,4871.25
2019-05-29T11:46:27.084Z,4826.25
2019-05-29T11:47:27.044Z,4736.25
2019-05-29T11:48:27.062Z,4702.50
2019-05-29T11:49:27.166Z,4663.12
2019-05-29T11:50:27.059Z,4730.62
2019-05-29T11:51:26.994Z,4708.12
2019-05-29T11:52:41.626Z,4680.00
2019-05-29T11:53:27.976Z,4623.75
2019-05-29T11:54:27.086Z,4629.38
2019-05-29T11:55:26.946Z,4708.12
2019-05-29T11:56:26.992Z,2761.88
2019-05-29T11:57:26.938Z,1884.38
2019-05-29T11:58:31.285Z,1153.12
2019-05-29T11:59:27.092Z,1861.88
2019-05-29T12:00:27.018Z,4511.25
2019-05-29T12:01:26.908Z,4578.75
2019-05-29T12:02:26.919Z,4691.25
2019-05-29T12:03:26.912Z,4567.50
2019-05-29T12:04:27.173Z,4488.75
2019-05-29T12:05:26.869Z,4438.12
2019-05-29T12:06:26.900Z,4410.00
2019-05-29T12:07:26.854Z,4241.25
2019-05-29T12:08:26.873Z,4325.62
2019-05-29T12:09:32.690Z,4646.25
2019-05-29T12:10:27.921Z,3262.50
2019-05-29T12:11:26.792Z,4764.38
2019-05-29T12:12:26.788Z,4606.88
2019-05-29T12:13:26.776Z,4291.88
2019-05-29T12:14:26.807Z,4578.75
2019-05-29T12:15:26.804Z,4629.38
2019-05-29T12:16:26.801Z,4674.38
2019-05-29T12:17:27.145Z,4460.62
2019-05-29T12:18:26.764Z,4314.38
2019-05-29T12:19:26.768Z,4336.88
2019-05-29T12:20:28.415Z,4213.12
2019-05-29T12:21:26.744Z,4331.25
2019-05-29T12:22:26.702Z,4466.25
2019-05-29T12:23:27.287Z,4336.88
2019-05-29T12:24:26.708Z,4314.38
2019-05-29T12:25:26.746Z,4443.75
2019-05-29T12:26:26.806Z,4438.12
2019-05-29T12:27:26.641Z,4466.25
2019-05-29T12:28:26.710Z,4539.38
2019-05-29T12:29:26.628Z,4466.25
2019-05-29T12:30:26.608Z,4516.88
2019-05-29T12:31:26.778Z,4561.88